createdAt,value
2017-10-09T00:00:19.558Z,0.00
2017-10-09T00:01:19.556Z,0.00
2017-10-09T00:02:19.554Z,0.00
2017-10-09T00:03:19.549Z,0.00
2017-10-09T00:04:19.546Z,0.00
2017-10-09T00:05:19.544Z,0.00
2017-10-09T00:06:19.542Z,0.00
2017-10-09T00:07:19.531Z,0.00
2017-10-09T00:08:19.537Z,0.00
2017-10-09T00:09:19.528Z,0.00
2017-10-09T00:10:19.520Z,0.00
2017-10-09T00:11:19.522Z,0.00
2017-10-09T00:12:19.520Z,0.00
2017-10-09T00:13:19.520Z,0.00
2017-10-09T00:14:19.515Z,0.00
2017-10-09T00:15:19.514Z,0.00
2017-10-09T00:16:19.510Z,0.00
2017-10-09T00:17:19.508Z,0.00
2017-10-09T00:18:19.503Z,0.00
2017-10-09T00:19:19.501Z,0.00
2017-10-09T00:20:19.500Z,0.00
2017-10-09T00:21:19.495Z,0.00
2017-10-09T00:22:19.492Z,0.00
2017-10-09T00:23:19.487Z,0.00
2017-10-09T00:24:19.490Z,0.00
2017-10-09T00:25:19.484Z,0.00
2017-10-09T00:26:19.481Z,0.00
2017-10-09T00:27:19.476Z,0.00
2017-10-09T00:28:19.474Z,0.00
2017-10-09T00:29:19.472Z,0.00
2017-10-09T00:30:19.467Z,0.00
2017-10-09T00:31:19.465Z,0.00
2017-10-09T00:32:19.462Z,0.00
2017-10-09T00:33:19.458Z,0.00
2017-10-09T00:34:19.454Z,0.00
2017-10-09T00:35:19.450Z,0.00
2017-10-09T00:36:19.450Z,0.00
2017-10-09T00:37:19.446Z,0.00
2017-10-09T00:38:19.441Z,0.00
2017-10-09T00:39:19.440Z,0.00
2017-10-09T00:40:19.435Z,0.00
2017-10-09T00:41:19.432Z,0.00
2017-10-09T00:42:19.441Z,0.00
2017-10-09T00:43:19.425Z,0.00
2017-10-09T00:44:19.420Z,0.00
2017-10-09T00:45:19.418Z,0.00
2017-10-09T00:46:19.408Z,0.00
2017-10-09T00:47:19.412Z,0.00
2017-10-09T00:48:19.413Z,0.00
2017-10-09T00:49:19.403Z,0.00
2017-10-09T00:50:19.398Z,0.00
2017-10-09T00:51:19.400Z,0.00
2017-10-09T00:52:19.391Z,0.00
2017-10-09T00:53:19.390Z,0.00
2017-10-09T00:54:19.383Z,0.00
2017-10-09T00:55:19.381Z,0.00
2017-10-09T00:56:19.375Z,0.00
2017-10-09T00:57:19.372Z,0.00
2017-10-09T00:58:19.367Z,0.00
2017-10-09T00:59:19.368Z,0.00
2017-10-09T01:00:19.369Z,0.00
2017-10-09T01:01:19.359Z,0.00
2017-10-09T01:02:19.357Z,0.00
2017-10-09T01:03:19.352Z,0.00
2017-10-09T01:04:19.347Z,0.00
2017-10-09T01:05:19.345Z,0.00
2017-10-09T01:06:19.334Z,0.00
2017-10-09T01:07:19.336Z,0.00
2017-10-09T01:08:19.331Z,0.00
2017-10-09T01:09:19.329Z,0.00
2017-10-09T01:10:19.323Z,0.00
2017-10-09T01:11:19.319Z,0.00
2017-10-09T01:12:19.318Z,0.00
2017-10-09T01:13:19.315Z,0.00
2017-10-09T01:14:19.299Z,0.00
2017-10-09T01:15:19.309Z,0.00
2017-10-09T01:16:19.299Z,0.00
2017-10-09T01:17:19.298Z,0.00
2017-10-09T01:18:19.294Z,0.00
2017-10-09T01:19:19.289Z,0.00
2017-10-09T01:20:19.285Z,0.00
2017-10-09T01:21:19.283Z,0.00
2017-10-09T01:22:19.279Z,0.00
2017-10-09T01:23:19.271Z,0.00
2017-10-09T01:24:19.269Z,0.00
2017-10-09T01:25:19.263Z,0.00
2017-10-09T01:26:19.258Z,0.00
2017-10-09T01:27:19.262Z,0.00
2017-10-09T01:28:19.255Z,0.00
2017-10-09T01:29:19.252Z,0.00
2017-10-09T01:30:19.246Z,0.00
2017-10-09T01:31:19.238Z,0.00
2017-10-09T01:32:19.237Z,0.00
2017-10-09T01:33:19.235Z,0.00
2017-10-09T01:34:19.227Z,0.00
2017-10-09T01:35:19.228Z,0.00
2017-10-09T01:36:19.222Z,0.00
2017-10-09T01:37:19.220Z,0.00
2017-10-09T01:38:19.215Z,0.00
2017-10-09T01:39:19.212Z,0.00
2017-10-09T01:40:19.209Z,0.00
2017-10-09T01:41:19.204Z,0.00
2017-10-09T01:42:19.208Z,0.00
2017-10-09T01:43:19.208Z,0.00
2017-10-09T01:44:19.196Z,0.00
2017-10-09T01:45:19.193Z,0.00
2017-10-09T01:46:19.186Z,0.00
2017-10-09T01:47:19.186Z,0.00
2017-10-09T01:48:19.181Z,0.00
2017-10-09T01:49:19.182Z,0.00
2017-10-09T01:50:19.165Z,0.00
2017-10-09T01:51:19.170Z,0.00
2017-10-09T01:52:19.171Z,0.00
2017-10-09T01:53:19.166Z,0.00
2017-10-09T01:54:19.165Z,0.00
2017-10-09T01:55:19.154Z,0.00
2017-10-09T01:56:19.157Z,0.00
2017-10-09T01:57:19.173Z,0.00
2017-10-09T01:58:19.146Z,0.00
2017-10-09T01:59:19.144Z,0.00
2017-10-09T02:00:19.144Z,0.00
2017-10-09T02:01:19.141Z,0.00
2017-10-09T02:02:19.138Z,0.00
2017-10-09T02:03:19.129Z,0.00
2017-10-09T02:04:19.127Z,0.00
2017-10-09T02:05:19.127Z,0.00
2017-10-09T02:06:19.117Z,0.00
2017-10-09T02:07:19.115Z,0.00
2017-10-09T02:08:19.116Z,0.00
2017-10-09T02:09:19.105Z,0.00
2017-10-09T02:10:19.107Z,0.00
2017-10-09T02:11:19.096Z,0.00
2017-10-09T02:12:19.094Z,0.00
2017-10-09T02:13:19.092Z,0.00
2017-10-09T02:14:19.083Z,0.00
2017-10-09T02:15:19.085Z,0.00
2017-10-09T02:16:19.079Z,0.00
2017-10-09T02:17:19.077Z,0.00
2017-10-09T02:18:19.073Z,0.00
2017-10-09T02:19:19.072Z,0.00
2017-10-09T02:20:19.068Z,0.00
2017-10-09T02:21:19.060Z,0.00
2017-10-09T02:22:19.060Z,0.00
2017-10-09T02:23:19.059Z,0.00
2017-10-09T02:24:19.051Z,0.00
2017-10-09T02:25:19.048Z,0.00
2017-10-09T02:26:19.044Z,0.00
2017-10-09T02:27:19.046Z,0.00
2017-10-09T02:28:19.038Z,0.00
2017-10-09T02:29:19.035Z,0.00
2017-10-09T02:30:19.028Z,0.00
2017-10-09T02:31:19.053Z,0.00
2017-10-09T02:32:19.024Z,0.00
2017-10-09T02:33:19.023Z,0.00
2017-10-09T02:34:19.021Z,0.00
2017-10-09T02:35:19.002Z,0.00
2017-10-09T02:36:19.008Z,0.00
2017-10-09T02:37:19.009Z,0.00
2017-10-09T02:38:19.001Z,0.00
2017-10-09T02:39:19.001Z,0.00
2017-10-09T02:40:18.995Z,0.00
2017-10-09T02:41:18.989Z,0.00
2017-10-09T02:42:18.989Z,0.00
2017-10-09T02:43:18.992Z,0.00
2017-10-09T02:44:18.989Z,0.00
2017-10-09T02:45:18.975Z,0.00
2017-10-09T02:46:18.973Z,0.00
2017-10-09T02:47:18.970Z,0.00
2017-10-09T02:48:18.964Z,0.00
2017-10-09T02:49:18.961Z,0.00
2017-10-09T02:50:18.957Z,0.00
2017-10-09T02:51:18.955Z,0.00
2017-10-09T02:52:18.959Z,0.00
2017-10-09T02:53:18.948Z,0.00
2017-10-09T02:54:18.943Z,0.00
2017-10-09T02:55:18.940Z,0.00
2017-10-09T02:56:18.936Z,0.00
2017-10-09T02:57:18.932Z,0.00
2017-10-09T02:58:18.928Z,0.00
2017-10-09T02:59:18.924Z,0.00
2017-10-09T03:00:18.917Z,0.00
2017-10-09T03:01:18.920Z,0.00
2017-10-09T03:02:18.911Z,0.00
2017-10-09T03:03:18.908Z,0.00
2017-10-09T03:04:18.904Z,0.00
2017-10-09T03:05:18.900Z,0.00
2017-10-09T03:06:18.894Z,0.00
2017-10-09T03:07:18.894Z,0.00
2017-10-09T03:08:18.884Z,0.00
2017-10-09T03:09:18.888Z,0.00
2017-10-09T03:10:18.878Z,0.00
2017-10-09T03:11:18.875Z,0.00
2017-10-09T03:12:18.864Z,0.00
2017-10-09T03:13:18.872Z,0.00
2017-10-09T03:14:18.864Z,0.00
2017-10-09T03:15:18.862Z,0.00
2017-10-09T03:16:18.852Z,0.00
2017-10-09T03:17:18.852Z,0.00
2017-10-09T03:18:18.850Z,0.00
2017-10-09T03:19:18.847Z,0.00
2017-10-09T03:20:18.842Z,0.00
2017-10-09T03:21:18.836Z,0.00
2017-10-09T03:22:18.838Z,0.00
2017-10-09T03:23:18.834Z,0.00
2017-10-09T03:24:18.829Z,0.00
2017-10-09T03:25:18.824Z,0.00
2017-10-09T03:26:18.820Z,0.00
2017-10-09T03:27:18.815Z,0.00
2017-10-09T03:28:18.815Z,0.00
2017-10-09T03:29:18.810Z,0.00
2017-10-09T03:30:18.811Z,0.00
2017-10-09T03:31:18.802Z,0.00
2017-10-09T03:32:18.806Z,0.00
2017-10-09T03:33:18.798Z,0.00
2017-10-09T03:34:18.789Z,0.00
2017-10-09T03:35:18.784Z,0.00
2017-10-09T03:36:18.782Z,0.00
2017-10-09T03:37:18.782Z,0.00
2017-10-09T03:38:18.775Z,0.00
2017-10-09T03:39:18.768Z,0.00
2017-10-09T03:40:18.771Z,0.00
2017-10-09T03:41:18.762Z,0.00
2017-10-09T03:42:18.757Z,0.00
2017-10-09T03:43:18.754Z,0.00
2017-10-09T03:44:18.749Z,0.00
2017-10-09T03:45:18.748Z,0.00
2017-10-09T03:46:18.741Z,0.00
2017-10-09T03:47:18.734Z,0.00
2017-10-09T03:48:18.736Z,0.00
2017-10-09T03:49:18.718Z,0.00
2017-10-09T03:50:18.726Z,0.00
2017-10-09T03:51:18.722Z,0.00
2017-10-09T03:52:18.723Z,0.00
2017-10-09T03:53:18.714Z,0.00
2017-10-09T03:54:18.710Z,0.00
2017-10-09T03:55:18.703Z,0.00
2017-10-09T03:56:18.702Z,0.00
2017-10-09T03:57:18.700Z,0.00
2017-10-09T03:58:18.698Z,0.00
2017-10-09T03:59:18.688Z,0.00
2017-10-09T04:00:18.684Z,0.00
2017-10-09T04:01:18.682Z,0.00
2017-10-09T04:02:18.676Z,0.00
2017-10-09T04:03:18.672Z,0.00
2017-10-09T04:04:18.670Z,0.00
2017-10-09T04:05:18.664Z,0.00
2017-10-09T04:06:18.663Z,0.00
2017-10-09T04:07:18.656Z,0.00
2017-10-09T04:08:18.648Z,0.00
2017-10-09T04:09:18.653Z,0.00
2017-10-09T04:10:18.641Z,0.00
2017-10-09T04:11:18.635Z,0.00
2017-10-09T04:12:18.631Z,0.00
2017-10-09T04:13:18.619Z,0.00
2017-10-09T04:14:18.621Z,0.00
2017-10-09T04:15:18.614Z,0.00
2017-10-09T04:16:18.610Z,0.00
2017-10-09T04:17:18.608Z,0.00
2017-10-09T04:18:18.605Z,0.00
2017-10-09T04:19:18.599Z,0.00
2017-10-09T04:20:18.593Z,0.00
2017-10-09T04:21:18.584Z,0.00
2017-10-09T04:22:18.582Z,0.00
2017-10-09T04:23:18.586Z,0.00
2017-10-09T04:24:18.569Z,0.00
2017-10-09T04:25:18.568Z,0.00
2017-10-09T04:26:18.564Z,0.00
2017-10-09T04:27:18.558Z,0.00
2017-10-09T04:28:18.554Z,0.00
2017-10-09T04:29:18.576Z,0.00
2017-10-09T04:30:18.542Z,0.00
2017-10-09T04:31:18.542Z,0.00
2017-10-09T04:32:18.532Z,0.00
2017-10-09T04:33:18.532Z,0.00
2017-10-09T04:34:18.525Z,0.00
2017-10-09T04:35:18.518Z,0.00
2017-10-09T04:36:18.518Z,0.00
2017-10-09T04:37:18.511Z,0.00
2017-10-09T04:38:18.504Z,0.00
2017-10-09T04:39:18.500Z,0.00
2017-10-09T04:40:18.500Z,0.00
2017-10-09T04:41:18.495Z,0.00
2017-10-09T04:42:18.487Z,0.00
2017-10-09T04:43:18.481Z,0.00
2017-10-09T04:44:18.474Z,0.00
2017-10-09T04:45:18.472Z,0.00
2017-10-09T04:46:18.464Z,0.00
2017-10-09T04:47:18.459Z,0.00
2017-10-09T04:48:18.456Z,0.00
2017-10-09T04:49:18.452Z,0.00
2017-10-09T04:50:18.446Z,0.00
2017-10-09T04:51:18.442Z,0.00
2017-10-09T04:52:18.439Z,0.00
2017-10-09T04:53:18.434Z,0.00
2017-10-09T04:54:18.429Z,0.00
2017-10-09T04:55:18.423Z,0.00
2017-10-09T04:56:18.417Z,0.00
2017-10-09T04:57:18.414Z,0.00
2017-10-09T04:58:18.412Z,0.00
2017-10-09T04:59:18.406Z,0.00
2017-10-09T05:00:18.398Z,0.00
2017-10-09T05:01:18.394Z,0.00
2017-10-09T05:02:18.388Z,0.00
2017-10-09T05:03:18.382Z,0.00
2017-10-09T05:04:18.379Z,0.00
2017-10-09T05:05:18.375Z,0.00
2017-10-09T05:06:18.369Z,0.00
2017-10-09T05:07:18.359Z,0.00
2017-10-09T05:08:18.360Z,0.00
2017-10-09T05:09:18.360Z,0.00
2017-10-09T05:10:18.351Z,4.00
2017-10-09T05:11:18.343Z,4.00
2017-10-09T05:12:18.340Z,0.00
2017-10-09T05:13:18.341Z,0.00
2017-10-09T05:14:18.330Z,4.00
2017-10-09T05:15:18.326Z,0.00
2017-10-09T05:16:18.322Z,4.00
2017-10-09T05:17:18.322Z,0.00
2017-10-09T05:18:18.305Z,4.00
2017-10-09T05:19:18.306Z,4.00
2017-10-09T05:20:18.303Z,8.00
2017-10-09T05:21:18.294Z,8.00
2017-10-09T05:22:18.291Z,8.00
2017-10-09T05:23:18.297Z,8.00
2017-10-09T05:24:18.282Z,12.00
2017-10-09T05:25:18.278Z,12.00
2017-10-09T05:26:18.272Z,16.00
2017-10-09T05:27:18.269Z,16.00
2017-10-09T05:28:18.261Z,20.00
2017-10-09T05:29:18.256Z,24.00
2017-10-09T05:30:18.253Z,24.00
2017-10-09T05:31:18.247Z,32.00
2017-10-09T05:32:18.243Z,32.00
2017-10-09T05:33:18.238Z,36.00
2017-10-09T05:34:18.233Z,44.00
2017-10-09T05:35:18.235Z,44.00
2017-10-09T05:36:18.224Z,52.00
2017-10-09T05:37:18.221Z,60.00
2017-10-09T05:38:18.214Z,64.00
2017-10-09T05:39:18.212Z,72.00
2017-10-09T05:40:18.205Z,80.00
2017-10-09T05:41:18.197Z,92.00
2017-10-09T05:42:18.197Z,100.00
2017-10-09T05:43:18.192Z,116.00
2017-10-09T05:44:18.195Z,124.00
2017-10-09T05:45:18.182Z,136.00
2017-10-09T05:46:18.179Z,148.00
2017-10-09T05:47:18.178Z,164.00
2017-10-09T05:48:18.171Z,172.00
2017-10-09T05:49:18.162Z,188.00
2017-10-09T05:50:18.157Z,200.00
2017-10-09T05:51:18.152Z,220.00
2017-10-09T05:52:18.148Z,240.00
2017-10-09T05:53:18.147Z,260.00
2017-10-09T05:54:18.138Z,272.00
2017-10-09T05:55:18.128Z,284.00
2017-10-09T05:56:18.130Z,292.00
2017-10-09T05:57:18.130Z,296.00
2017-10-09T05:58:18.119Z,292.00
2017-10-09T05:59:18.116Z,288.00
2017-10-09T06:00:18.112Z,280.00
2017-10-09T06:01:18.107Z,272.00
2017-10-09T06:02:18.101Z,272.00
2017-10-09T06:03:18.104Z,280.00
2017-10-09T06:04:18.096Z,296.00
2017-10-09T06:05:18.087Z,312.00
2017-10-09T06:06:18.089Z,308.00
2017-10-09T06:07:18.078Z,320.00
2017-10-09T06:08:18.085Z,336.00
2017-10-09T06:09:18.063Z,348.00
2017-10-09T06:10:18.063Z,368.00
2017-10-09T06:11:18.060Z,384.00
2017-10-09T06:12:18.056Z,396.00
2017-10-09T06:13:18.047Z,400.00
2017-10-09T06:14:18.041Z,412.00
2017-10-09T06:15:18.042Z,432.00
2017-10-09T06:16:18.035Z,468.00
2017-10-09T06:17:18.032Z,508.00
2017-10-09T06:18:18.026Z,540.00
2017-10-09T06:19:18.021Z,572.00
2017-10-09T06:20:18.014Z,596.00
2017-10-09T06:21:18.013Z,636.00
2017-10-09T06:22:18.009Z,712.00
2017-10-09T06:23:18.005Z,776.00
2017-10-09T06:24:17.997Z,820.00
2017-10-09T06:25:17.994Z,856.00
2017-10-09T06:26:17.988Z,884.00
2017-10-09T06:27:17.982Z,876.00
2017-10-09T06:28:17.982Z,888.00
2017-10-09T06:29:17.973Z,920.00
2017-10-09T06:30:17.975Z,948.00
2017-10-09T06:31:17.971Z,980.00
2017-10-09T06:32:17.965Z,1008.00
2017-10-09T06:33:17.954Z,1008.00
2017-10-09T06:34:17.950Z,1000.00
2017-10-09T06:35:17.947Z,1012.00
2017-10-09T06:36:17.944Z,992.00
2017-10-09T06:37:17.940Z,944.00
2017-10-09T06:38:17.933Z,904.00
2017-10-09T06:39:17.930Z,868.00
2017-10-09T06:40:17.926Z,884.00
2017-10-09T06:41:17.922Z,968.00
2017-10-09T06:42:17.920Z,1040.00
2017-10-09T06:43:17.913Z,1048.00
2017-10-09T06:44:17.909Z,1064.00
2017-10-09T06:45:17.906Z,1104.00
2017-10-09T06:46:17.902Z,1144.00
2017-10-09T06:47:17.898Z,1168.00
2017-10-09T06:48:17.895Z,1196.00
2017-10-09T06:49:17.889Z,1232.00
2017-10-09T06:50:17.882Z,1284.00
2017-10-09T06:51:17.882Z,1368.00
2017-10-09T06:52:17.876Z,1404.00
2017-10-09T06:53:17.872Z,1404.00
2017-10-09T06:54:17.870Z,1372.00
2017-10-09T06:55:17.865Z,1320.00
2017-10-09T06:56:17.863Z,1308.00
2017-10-09T06:57:17.860Z,1328.00
2017-10-09T06:58:17.852Z,1344.00
2017-10-09T06:59:17.848Z,1380.00
2017-10-09T07:00:17.844Z,1452.00
2017-10-09T07:01:17.843Z,1476.00
2017-10-09T07:02:17.835Z,1492.00
2017-10-09T07:03:17.830Z,1516.00
2017-10-09T07:04:17.826Z,1552.00
2017-10-09T07:05:17.823Z,1584.00
2017-10-09T07:06:17.819Z,1560.00
2017-10-09T07:07:17.811Z,1552.00
2017-10-09T07:08:17.812Z,1544.00
2017-10-09T07:09:17.800Z,1532.00
2017-10-09T07:10:17.805Z,1536.00
2017-10-09T07:11:17.794Z,1564.00
2017-10-09T07:12:17.796Z,1584.00
2017-10-09T07:13:17.787Z,1572.00
2017-10-09T07:14:17.782Z,1596.00
2017-10-09T07:15:17.783Z,1632.00
2017-10-09T07:16:17.772Z,1624.00
2017-10-09T07:17:17.773Z,1620.00
2017-10-09T07:18:17.764Z,1700.00
2017-10-09T07:19:17.763Z,1796.00
2017-10-09T07:20:17.758Z,1796.00
2017-10-09T07:21:17.752Z,1676.00
2017-10-09T07:22:17.747Z,1788.00
2017-10-09T07:23:17.748Z,1868.00
2017-10-09T07:24:17.738Z,1912.00
2017-10-09T07:25:17.738Z,2008.00
2017-10-09T07:26:17.735Z,2132.00
2017-10-09T07:27:17.730Z,2220.00
2017-10-09T07:28:17.725Z,2360.00
2017-10-09T07:29:17.718Z,2388.00
2017-10-09T07:30:17.715Z,2552.00
2017-10-09T07:31:17.717Z,2724.00
2017-10-09T07:32:17.707Z,2896.00
2017-10-09T07:33:17.713Z,3216.00
2017-10-09T07:34:17.697Z,3276.00
2017-10-09T07:35:17.695Z,3288.00
2017-10-09T07:36:17.688Z,3276.00
2017-10-09T07:37:17.683Z,3252.00
2017-10-09T07:38:17.687Z,3192.00
2017-10-09T07:39:17.677Z,3088.00
2017-10-09T07:40:17.674Z,3048.00
2017-10-09T07:41:17.671Z,3096.00
2017-10-09T07:42:17.667Z,3184.00
2017-10-09T07:43:17.661Z,3232.00
2017-10-09T07:44:17.663Z,3292.00
2017-10-09T07:45:17.655Z,3324.00
2017-10-09T07:46:17.651Z,3396.00
2017-10-09T07:47:17.648Z,3436.00
2017-10-09T07:48:17.647Z,3412.00
2017-10-09T07:49:17.639Z,3344.00
2017-10-09T07:50:17.638Z,3348.00
2017-10-09T07:51:17.631Z,3428.00
2017-10-09T07:52:17.628Z,3544.00
2017-10-09T07:53:17.625Z,3604.00
2017-10-09T07:54:17.624Z,3656.00
2017-10-09T07:55:17.615Z,3684.00
2017-10-09T07:56:17.618Z,3760.00
2017-10-09T07:57:17.604Z,3808.00
2017-10-09T07:58:17.604Z,3828.00
2017-10-09T07:59:17.602Z,3880.00
2017-10-09T08:00:17.602Z,3924.00
2017-10-09T08:01:17.599Z,3888.00
2017-10-09T08:02:17.594Z,3832.00
2017-10-09T08:03:17.587Z,3768.00
2017-10-09T08:04:17.586Z,3768.00
2017-10-09T08:05:17.582Z,3756.00
2017-10-09T08:06:17.582Z,3804.00
2017-10-09T08:07:17.574Z,3868.00
2017-10-09T08:08:17.570Z,3980.00
2017-10-09T08:09:17.567Z,4116.00
2017-10-09T08:10:17.561Z,4192.00
2017-10-09T08:11:17.560Z,4248.00
2017-10-09T08:12:17.557Z,4292.00
2017-10-09T08:13:17.564Z,4260.00
2017-10-09T08:14:17.551Z,4248.00
2017-10-09T08:15:17.547Z,4212.00
2017-10-09T08:16:17.543Z,4252.00
2017-10-09T08:17:17.542Z,4232.00
2017-10-09T08:18:17.537Z,4240.00
2017-10-09T08:19:17.538Z,4172.00
2017-10-09T08:20:17.532Z,4148.00
2017-10-09T08:21:17.522Z,4164.00
2017-10-09T08:22:17.524Z,4132.00
2017-10-09T08:23:17.521Z,4136.00
2017-10-09T08:24:17.520Z,4100.00
2017-10-09T08:25:17.516Z,4052.00
2017-10-09T08:26:17.513Z,4060.00
2017-10-09T08:27:17.510Z,4108.00
2017-10-09T08:28:17.507Z,4152.00
2017-10-09T08:29:17.502Z,4240.00
2017-10-09T08:30:17.505Z,4332.00
2017-10-09T08:31:17.501Z,4440.00
2017-10-09T08:32:17.496Z,4524.00
2017-10-09T08:33:17.494Z,4556.00
2017-10-09T08:34:17.491Z,4512.00
2017-10-09T08:35:17.488Z,4496.00
2017-10-09T08:36:17.484Z,4516.00
2017-10-09T08:37:17.487Z,4592.00
2017-10-09T08:38:17.504Z,4680.00
2017-10-09T08:39:17.474Z,4748.00
2017-10-09T08:40:17.473Z,4848.00
2017-10-09T08:41:17.474Z,4904.00
2017-10-09T08:42:17.478Z,4928.00
2017-10-09T08:43:17.469Z,4908.00
2017-10-09T08:44:17.469Z,4892.00
2017-10-09T08:45:17.463Z,4892.00
2017-10-09T08:46:17.459Z,4808.00
2017-10-09T08:47:17.454Z,4696.00
2017-10-09T08:48:17.453Z,4652.00
2017-10-09T08:49:17.454Z,4692.00
2017-10-09T08:50:17.447Z,4560.00
2017-10-09T08:51:17.445Z,4392.00
2017-10-09T08:52:17.443Z,4344.00
2017-10-09T08:53:17.441Z,4280.00
2017-10-09T08:54:17.436Z,4212.00
2017-10-09T08:55:17.433Z,4132.00
2017-10-09T08:56:17.430Z,4152.00
2017-10-09T08:57:17.428Z,4132.00
2017-10-09T08:58:17.439Z,4116.00
2017-10-09T08:59:17.421Z,4060.00
2017-10-09T09:00:17.425Z,4164.00
2017-10-09T09:01:17.416Z,4444.00
2017-10-09T09:02:17.451Z,4668.00
2017-10-09T09:03:17.410Z,4712.00
2017-10-09T09:04:17.411Z,4816.00
2017-10-09T09:05:17.407Z,4940.00
2017-10-09T09:06:17.422Z,5024.00
2017-10-09T09:07:17.400Z,4968.00
2017-10-09T09:08:17.407Z,4884.00
2017-10-09T09:09:17.399Z,4472.00
2017-10-09T09:10:17.394Z,4424.00
2017-10-09T09:11:17.392Z,4604.00
2017-10-09T09:12:17.389Z,4872.00
2017-10-09T09:13:17.385Z,4884.00
2017-10-09T09:14:17.383Z,4768.00
2017-10-09T09:15:17.382Z,4624.00
2017-10-09T09:16:17.379Z,4700.00
2017-10-09T09:17:17.379Z,4788.00
2017-10-09T09:18:17.385Z,4800.00
2017-10-09T09:19:17.373Z,4772.00
2017-10-09T09:20:17.370Z,5104.00
2017-10-09T09:21:17.371Z,5500.00
2017-10-09T09:22:17.366Z,5304.00
2017-10-09T09:23:17.364Z,5060.00
2017-10-09T09:24:17.362Z,5220.00
2017-10-09T09:25:17.361Z,5500.00
2017-10-09T09:26:17.354Z,5524.00
2017-10-09T09:27:17.352Z,5972.00
2017-10-09T09:28:17.356Z,6640.00
2017-10-09T09:29:17.355Z,7044.00
2017-10-09T09:30:17.349Z,7580.00
2017-10-09T09:31:17.343Z,7796.00
2017-10-09T09:32:17.342Z,7700.00
2017-10-09T09:33:17.344Z,7312.00
2017-10-09T09:34:17.337Z,7276.00
2017-10-09T09:35:17.336Z,7048.00
2017-10-09T09:36:17.333Z,6128.00
2017-10-09T09:37:17.333Z,5420.00
2017-10-09T09:38:17.333Z,4180.00
2017-10-09T09:39:17.329Z,3404.00
2017-10-09T09:40:17.329Z,3160.00
2017-10-09T09:41:17.323Z,3276.00
2017-10-09T09:42:17.331Z,3396.00
2017-10-09T09:43:17.323Z,3272.00
2017-10-09T09:44:17.321Z,3096.00
2017-10-09T09:45:17.319Z,2836.00
2017-10-09T09:46:17.316Z,2632.00
2017-10-09T09:47:17.315Z,2760.00
2017-10-09T09:48:17.314Z,2844.00
2017-10-09T09:49:17.318Z,3160.00
2017-10-09T09:50:17.312Z,3680.00
2017-10-09T09:51:17.306Z,4252.00
2017-10-09T09:52:17.307Z,4428.00
2017-10-09T09:53:17.308Z,4820.00
2017-10-09T09:54:17.305Z,5752.00
2017-10-09T09:55:17.305Z,6316.00
2017-10-09T09:56:17.304Z,6644.00
2017-10-09T09:57:17.302Z,6856.00
2017-10-09T09:58:17.295Z,7244.00
2017-10-09T09:59:17.296Z,7256.00
2017-10-09T10:00:17.294Z,7308.00
2017-10-09T10:01:17.289Z,7492.00
2017-10-09T10:02:17.288Z,7580.00
2017-10-09T10:03:17.286Z,7692.00
2017-10-09T10:04:17.287Z,7708.00
2017-10-09T10:05:17.286Z,7620.00
2017-10-09T10:06:17.281Z,7544.00
2017-10-09T10:07:17.287Z,7348.00
2017-10-09T10:08:17.282Z,7244.00
2017-10-09T10:09:17.285Z,7164.00
2017-10-09T10:10:17.279Z,7216.00
2017-10-09T10:11:17.267Z,7184.00
2017-10-09T10:12:17.276Z,7044.00
2017-10-09T10:13:17.278Z,6264.00
2017-10-09T10:14:17.274Z,6908.00
2017-10-09T10:15:17.273Z,6672.00
2017-10-09T10:16:17.269Z,6436.00
2017-10-09T10:17:17.268Z,6172.00
2017-10-09T10:18:17.270Z,6084.00
2017-10-09T10:19:17.269Z,6312.00
2017-10-09T10:20:17.270Z,6548.00
2017-10-09T10:21:17.266Z,6812.00
2017-10-09T10:22:17.266Z,6764.00
2017-10-09T10:23:17.269Z,6756.00
2017-10-09T10:24:17.264Z,6852.00
2017-10-09T10:25:17.267Z,7004.00
2017-10-09T10:26:17.264Z,7252.00
2017-10-09T10:27:17.261Z,7436.00
2017-10-09T10:28:17.266Z,7620.00
2017-10-09T10:29:17.262Z,7724.00
2017-10-09T10:30:17.261Z,7820.00
2017-10-09T10:31:17.258Z,7744.00
2017-10-09T10:32:17.265Z,7804.00
2017-10-09T10:33:17.258Z,7920.00
2017-10-09T10:34:17.259Z,7632.00
2017-10-09T10:35:17.256Z,7268.00
2017-10-09T10:36:17.257Z,7092.00
2017-10-09T10:37:17.258Z,6404.00
2017-10-09T10:38:17.256Z,6092.00
2017-10-09T10:39:17.252Z,5808.00
2017-10-09T10:40:17.254Z,5524.00
2017-10-09T10:41:17.250Z,5404.00
2017-10-09T10:42:17.252Z,5868.00
2017-10-09T10:43:17.248Z,5456.00
2017-10-09T10:44:17.251Z,5528.00
2017-10-09T10:45:17.265Z,5576.00
2017-10-09T10:46:17.247Z,5684.00
2017-10-09T10:47:17.249Z,6012.00
2017-10-09T10:48:17.247Z,6312.00
2017-10-09T10:49:17.247Z,6776.00
2017-10-09T10:50:17.251Z,7032.00
2017-10-09T10:51:17.245Z,6812.00
2017-10-09T10:52:17.244Z,7816.00
2017-10-09T10:53:17.243Z,9576.00
2017-10-09T10:54:17.241Z,9724.00
2017-10-09T10:55:17.286Z,10584.00
2017-10-09T10:56:17.240Z,11196.00
2017-10-09T10:57:17.242Z,9656.00
2017-10-09T10:58:17.240Z,7756.00
2017-10-09T10:59:17.240Z,7208.00
2017-10-09T11:00:17.240Z,6692.00
2017-10-09T11:01:17.237Z,6476.00
2017-10-09T11:02:17.238Z,6804.00
2017-10-09T11:03:17.240Z,7408.00
2017-10-09T11:04:17.242Z,7692.00
2017-10-09T11:05:17.240Z,7192.00
2017-10-09T11:06:17.233Z,6512.00
2017-10-09T11:07:17.240Z,5628.00
2017-10-09T11:08:17.241Z,5448.00
2017-10-09T11:09:17.234Z,5540.00
2017-10-09T11:10:17.236Z,6148.00
2017-10-09T11:11:17.239Z,8712.00
2017-10-09T11:12:17.230Z,9104.00
2017-10-09T11:13:17.236Z,11176.00
2017-10-09T11:14:17.235Z,19264.00
2017-10-09T11:15:17.236Z,24800.00
2017-10-09T11:16:17.237Z,13764.00
2017-10-09T11:17:17.236Z,10032.00
2017-10-09T11:18:17.235Z,10312.00
2017-10-09T11:19:17.240Z,7952.00
2017-10-09T11:20:17.236Z,7044.00
2017-10-09T11:21:17.234Z,6784.00
2017-10-09T11:22:17.236Z,7192.00
2017-10-09T11:23:17.236Z,7800.00
2017-10-09T11:24:17.235Z,8172.00
2017-10-09T11:25:17.238Z,6688.00
2017-10-09T11:26:17.240Z,6940.00
2017-10-09T11:27:17.239Z,7104.00
2017-10-09T11:28:17.243Z,7332.00
2017-10-09T11:29:17.243Z,7348.00
2017-10-09T11:30:17.238Z,7220.00
2017-10-09T11:31:17.231Z,7832.00
2017-10-09T11:32:17.240Z,8456.00
2017-10-09T11:33:17.246Z,8056.00
2017-10-09T11:34:17.240Z,6776.00
2017-10-09T11:35:17.242Z,6076.00
2017-10-09T11:36:17.257Z,5968.00
2017-10-09T11:37:17.243Z,6064.00
2017-10-09T11:38:17.241Z,5908.00
2017-10-09T11:39:17.246Z,5252.00
2017-10-09T11:40:17.254Z,5060.00
2017-10-09T11:41:17.244Z,5036.00
2017-10-09T11:42:17.251Z,4868.00
2017-10-09T11:43:17.246Z,4900.00
2017-10-09T11:44:17.245Z,4996.00
2017-10-09T11:45:17.246Z,5228.00
2017-10-09T11:46:17.245Z,5696.00
2017-10-09T11:47:17.243Z,6152.00
2017-10-09T11:48:17.249Z,6472.00
2017-10-09T11:49:17.244Z,8816.00
2017-10-09T11:50:17.243Z,7352.00
2017-10-09T11:51:17.240Z,6812.00
2017-10-09T11:52:17.247Z,6944.00
2017-10-09T11:53:17.243Z,6964.00
2017-10-09T11:54:17.242Z,6736.00
2017-10-09T11:55:17.241Z,6348.00
2017-10-09T11:56:17.241Z,5816.00
2017-10-09T11:57:17.241Z,5556.00
2017-10-09T11:58:17.244Z,5152.00
2017-10-09T11:59:17.235Z,4756.00
2017-10-09T12:00:17.241Z,4632.00
2017-10-09T12:01:17.254Z,4732.00
2017-10-09T12:02:17.242Z,4808.00
2017-10-09T12:03:17.238Z,4912.00
2017-10-09T12:04:17.254Z,4616.00
2017-10-09T12:05:17.241Z,4596.00
2017-10-09T12:06:17.236Z,4704.00
2017-10-09T12:07:17.236Z,4776.00
2017-10-09T12:08:17.233Z,5224.00
2017-10-09T12:09:17.237Z,5832.00
2017-10-09T12:10:17.233Z,6072.00
2017-10-09T12:11:17.233Z,5964.00
2017-10-09T12:12:17.235Z,6008.00
2017-10-09T12:13:17.230Z,5964.00
2017-10-09T12:14:17.229Z,6120.00
2017-10-09T12:15:17.231Z,5988.00
2017-10-09T12:16:17.229Z,5668.00
2017-10-09T12:17:17.220Z,5396.00
2017-10-09T12:18:17.228Z,4908.00
2017-10-09T12:19:17.227Z,4256.00
2017-10-09T12:20:17.225Z,3516.00
2017-10-09T12:21:17.226Z,2916.00
2017-10-09T12:22:17.225Z,2596.00
2017-10-09T12:23:17.222Z,2444.00
2017-10-09T12:24:17.224Z,2372.00
2017-10-09T12:25:17.224Z,2516.00
2017-10-09T12:26:17.222Z,2576.00
2017-10-09T12:27:17.221Z,2776.00
2017-10-09T12:28:17.234Z,2948.00
2017-10-09T12:29:17.219Z,3204.00
2017-10-09T12:30:17.220Z,3404.00
2017-10-09T12:31:17.218Z,3756.00
2017-10-09T12:32:17.217Z,4012.00
2017-10-09T12:33:17.215Z,4372.00
2017-10-09T12:34:17.214Z,4812.00
2017-10-09T12:35:17.215Z,4900.00
2017-10-09T12:36:17.214Z,4700.00
2017-10-09T12:37:17.235Z,4512.00